sensor_id;sensor_type;location;lat;lon;timestamp;pressure;altitude;pressure_sealevel;temperature;humidity
8697;BME280;4385;48.848;8.924;2024-03-25T00:00:16;96642.13;;;17.68;100.00
8697;BME280;4385;48.848;8.924;2024-03-25T00:02:41;96641.34;;;17.66;100.00
8697;BME280;4385;48.848;8.924;2024-03-25T00:05:08;96639.66;;;17.65;100.00
8697;BME280;4385;48.848;8.924;2024-03-25T00:07:39;96643.16;;;17.62;100.00
8697;BME280;4385;48.848;8.924;2024-03-25T00:10:05;96646.59;;;17.61;100.00
8697;BME280;4385;48.848;8.924;2024-03-25T00:12:34;96636.47;;;17.60;100.00
8697;BME280;4385;48.848;8.924;2024-03-25T00:14:59;96639.06;;;17.58;100.00
8697;BME280;4385;48.848;8.924;2024-03-25T00:17:25;96645.91;;;17.56;100.00
8697;BME280;4385;48.848;8.924;2024-03-25T00:19:50;96640.84;;;17.54;100.00
8697;BME280;4385;48.848;8.924;2024-03-25T00:22:19;96633.25;;;17.53;100.00
8697;BME280;4385;48.848;8.924;2024-03-25T00:24:45;96634.97;;;17.52;100.00
8697;BME280;4385;48.848;8.924;2024-03-25T00:27:11;96633.31;;;17.51;100.00
8697;BME280;4385;48.848;8.924;2024-03-25T00:29:36;96632.47;;;17.51;100.00
8697;BME280;4385;48.848;8.924;2024-03-25T00:32:02;96627.38;;;17.51;100.00
8697;BME280;4385;48.848;8.924;2024-03-25T00:34:27;96635.06;;;17.49;100.00
8697;BME280;4385;48.848;8.924;2024-03-25T00:36:52;96627.47;;;17.48;100.00
8697;BME280;4385;48.848;8.924;2024-03-25T00:39:18;96622.44;;;17.46;100.00
8697;BME280;4385;48.848;8.924;2024-03-25T00:41:44;96626.72;;;17.45;100.00
8697;BME280;4385;48.848;8.924;2024-03-25T00:44:09;96628.41;;;17.45;100.00
8697;BME280;4385;48.848;8.924;2024-03-25T00:46:35;96630.16;;;17.43;100.00
8697;BME280;4385;48.848;8.924;2024-03-25T00:49:01;96629.34;;;17.42;100.00
8697;BME280;4385;48.848;8.924;2024-03-25T00:51:26;96632.75;;;17.41;100.00
8697;BME280;4385;48.848;8.924;2024-03-25T00:53:51;96629.41;;;17.41;100.00
8697;BME280;4385;48.848;8.924;2024-03-25T00:56:17;96625.16;;;17.40;100.00
8697;BME280;4385;48.848;8.924;2024-03-25T00:58:42;96623.53;;;17.39;100.00
8697;BME280;4385;48.848;8.924;2024-03-25T01:01:07;96625.22;;;17.38;100.00
8697;BME280;4385;48.848;8.924;2024-03-25T01:03:33;96621.88;;;17.38;100.00
8697;BME280;4385;48.848;8.924;2024-03-25T01:05:59;96615.13;;;17.35;100.00
8697;BME280;4385;48.848;8.924;2024-03-25T01:08:24;96611.78;;;17.35;100.00
8697;BME280;4385;48.848;8.924;2024-03-25T01:10:50;96605.94;;;17.31;100.00
8697;BME280;4385;48.848;8.924;2024-03-25T01:13:15;96611.88;;;17.31;100.00
8697;BME280;4385;48.848;8.924;2024-03-25T01:15:41;96611.91;;;17.30;100.00
8697;BME280;4385;48.848;8.924;2024-03-25T01:18:07;96601.72;;;17.30;100.00
8697;BME280;4385;48.848;8.924;2024-03-25T01:20:33;96607.69;;;17.29;100.00
8697;BME280;4385;48.848;8.924;2024-03-25T01:22:58;96601.78;;;17.28;100.00
8697;BME280;4385;48.848;8.924;2024-03-25T01:25:24;96599.28;;;17.27;100.00
8697;BME280;4385;48.848;8.924;2024-03-25T01:27:50;96595.91;;;17.26;100.00
8697;BME280;4385;48.848;8.924;2024-03-25T01:30:15;96602.69;;;17.26;100.00
8697;BME280;4385;48.848;8.924;2024-03-25T01:32:41;96601.88;;;17.25;100.00
8697;BME280;4385;48.848;8.924;2024-03-25T01:35:08;96600.19;;;17.24;100.00
8697;BME280;4385;48.848;8.924;2024-03-25T01:37:33;96594.28;;;17.24;100.00
8697;BME280;4385;48.848;8.924;2024-03-25T01:39:58;96596.88;;;17.22;100.00
8697;BME280;4385;48.848;8.924;2024-03-25T01:42:24;96590.94;;;17.22;100.00
8697;BME280;4385;48.848;8.924;2024-03-25T01:44:49;96597.78;;;17.19;100.00
8697;BME280;4385;48.848;8.924;2024-03-25T01:47:14;96598.69;;;17.18;100.00
8697;BME280;4385;48.848;8.924;2024-03-25T01:49:40;96596.97;;;17.19;100.00
8697;BME280;4385;48.848;8.924;2024-03-25T01:52:05;96601.28;;;17.17;100.00
8697;BME280;4385;48.848;8.924;2024-03-25T01:54:31;96610.63;;;17.16;100.00
8697;BME280;4385;48.848;8.924;2024-03-25T01:56:57;96608.13;;;17.15;100.00
8697;BME280;4385;48.848;8.924;2024-03-25T01:59:24;96609.00;;;17.14;100.00
8697;BME280;4385;48.848;8.924;2024-03-25T02:01:50;96610.66;;;17.15;100.00
8697;BME280;4385;48.848;8.924;2024-03-25T02:04:15;96609.00;;;17.14;100.00
8697;BME280;4385;48.848;8.924;2024-03-25T02:06:41;96611.56;;;17.14;100.00
8697;BME280;4385;48.848;8.924;2024-03-25T02:09:07;96607.34;;;17.13;100.00
8697;BME280;4385;48.848;8.924;2024-03-25T02:11:34;96616.75;;;17.11;100.00
8697;BME280;4385;48.848;8.924;2024-03-25T02:13:59;96606.56;;;17.11;100.00
8697;BME280;4385;48.848;8.924;2024-03-25T02:16:24;96608.25;;;17.10;100.00
8697;BME280;4385;48.848;8.924;2024-03-25T02:18:50;96611.66;;;17.11;100.00
8697;BME280;4385;48.848;8.924;2024-03-25T02:21:16;96610.00;;;17.10;100.00
8697;BME280;4385;48.848;8.924;2024-03-25T02:23:42;96605.75;;;17.08;100.00
8697;BME280;4385;48.848;8.924;2024-03-25T02:26:10;96613.41;;;17.07;100.00
8697;BME280;4385;48.848;8.924;2024-03-25T02:28:35;96611.75;;;17.07;100.00
8697;BME280;4385;48.848;8.924;2024-03-25T02:31:00;96606.66;;;17.07;100.00
8697;BME280;4385;48.848;8.924;2024-03-25T02:33:26;96600.69;;;17.07;100.00
8697;BME280;4385;48.848;8.924;2024-03-25T02:35:51;96592.25;;;17.06;100.00
8697;BME280;4385;48.848;8.924;2024-03-25T02:38:17;96595.63;;;17.05;100.00
8697;BME280;4385;48.848;8.924;2024-03-25T02:40:43;96604.16;;;17.04;100.00
8697;BME280;4385;48.848;8.924;2024-03-25T02:43:10;96598.28;;;17.02;100.00
8697;BME280;4385;48.848;8.924;2024-03-25T02:45:36;96597.47;;;17.02;100.00
8697;BME280;4385;48.848;8.924;2024-03-25T02:48:01;96595.84;;;16.99;100.00
8697;BME280;4385;48.848;8.924;2024-03-25T02:50:27;96590.75;;;16.99;100.00
8697;BME280;4385;48.848;8.924;2024-03-25T02:52:52;96589.09;;;16.98;100.00
8697;BME280;4385;48.848;8.924;2024-03-25T02:55:18;96589.09;;;16.98;100.00
8697;BME280;4385;48.848;8.924;2024-03-25T02:57:43;96586.53;;;16.98;100.00
8697;BME280;4385;48.848;8.924;2024-03-25T03:00:09;96589.09;;;16.98;100.00
8697;BME280;4385;48.848;8.924;2024-03-25T03:02:34;96587.44;;;16.97;100.00
8697;BME280;4385;48.848;8.924;2024-03-25T03:05:00;96590.84;;;16.96;100.00
8697;BME280;4385;48.848;8.924;2024-03-25T03:07:26;96585.78;;;16.94;100.00
8697;BME280;4385;48.848;8.924;2024-03-25T03:09:51;96591.72;;;16.95;100.00
8697;BME280;4385;48.848;8.924;2024-03-25T03:12:16;96590.88;;;16.94;100.00
8697;BME280;4385;48.848;8.924;2024-03-25T03:14:42;96595.09;;;16.95;100.00
8697;BME280;4385;48.848;8.924;2024-03-25T03:17:07;96594.25;;;16.95;100.00
8697;BME280;4385;48.848;8.924;2024-03-25T03:19:32;96582.44;;;16.94;100.00
8697;BME280;4385;48.848;8.924;2024-03-25T03:21:58;96584.09;;;16.95;100.00
8697;BME280;4385;48.848;8.924;2024-03-25T03:24:23;96580.69;;;16.94;100.00
8697;BME280;4385;48.848;8.924;2024-03-25T03:26:49;96577.34;;;16.94;100.00
8697;BME280;4385;48.848;8.924;2024-03-25T03:29:14;96578.16;;;16.94;100.00
8697;BME280;4385;48.848;8.924;2024-03-25T03:31:40;96573.13;;;16.93;100.00
8697;BME280;4385;48.848;8.924;2024-03-25T03:34:05;96573.16;;;16.91;100.00
8697;BME280;4385;48.848;8.924;2024-03-25T03:36:30;96574.00;;;16.92;100.00
8697;BME280;4385;48.848;8.924;2024-03-25T03:38:56;96577.44;;;16.91;100.00
8697;BME280;4385;48.848;8.924;2024-03-25T03:41:21;96575.75;;;16.90;100.00
8697;BME280;4385;48.848;8.924;2024-03-25T03:43:47;96573.25;;;16.88;100.00
8697;BME280;4385;48.848;8.924;2024-03-25T03:46:12;96574.09;;;16.89;100.00
8697;BME280;4385;48.848;8.924;2024-03-25T03:48:38;96580.84;;;16.90;100.00
8697;BME280;4385;48.848;8.924;2024-03-25T03:51:06;96575.75;;;16.90;100.00
8697;BME280;4385;48.848;8.924;2024-03-25T03:53:32;96582.56;;;16.89;100.00
8697;BME280;4385;48.848;8.924;2024-03-25T03:56:00;96578.34;;;16.88;100.00
8697;BME280;4385;48.848;8.924;2024-03-25T03:58:27;96585.16;;;16.88;100.00
8697;BME280;4385;48.848;8.924;2024-03-25T04:00:52;96588.53;;;16.88;100.00
8697;BME280;4385;48.848;8.924;2024-03-25T04:03:18;96587.72;;;16.88;100.00
8697;BME280;4385;48.848;8.924;2024-03-25T04:05:44;96594.53;;;16.86;100.00
8697;BME280;4385;48.848;8.924;2024-03-25T04:08:10;96595.44;;;16.85;100.00
8697;BME280;4385;48.848;8.924;2024-03-25T04:10:36;96591.19;;;16.83;100.00
8697;BME280;4385;48.848;8.924;2024-03-25T04:13:01;96591.25;;;16.82;100.00
8697;BME280;4385;48.848;8.924;2024-03-25T04:15:27;96592.97;;;16.81;100.00
8697;BME280;4385;48.848;8.924;2024-03-25T04:17:52;96593.84;;;16.80;100.00
8697;BME280;4385;48.848;8.924;2024-03-25T04:20:18;96590.53;;;16.78;100.00
8697;BME280;4385;48.848;8.924;2024-03-25T04:22:45;96583.75;;;16.77;100.00
8697;BME280;4385;48.848;8.924;2024-03-25T04:25:10;96582.06;;;16.78;100.00
8697;BME280;4385;48.848;8.924;2024-03-25T04:27:40;96580.34;;;16.78;100.00
8697;BME280;4385;48.848;8.924;2024-03-25T04:30:07;96578.63;;;16.79;100.00
8697;BME280;4385;48.848;8.924;2024-03-25T04:32:33;96577.81;;;16.78;100.00
8697;BME280;4385;48.848;8.924;2024-03-25T04:34:59;96582.91;;;16.78;100.00
8697;BME280;4385;48.848;8.924;2024-03-25T04:37:24;96582.91;;;16.78;100.00
8697;BME280;4385;48.848;8.924;2024-03-25T04:39:49;96585.44;;;16.78;100.00
8697;BME280;4385;48.848;8.924;2024-03-25T04:42:15;96579.56;;;16.76;100.00
8697;BME280;4385;48.848;8.924;2024-03-25T04:44:40;96579.56;;;16.76;100.00
8697;BME280;4385;48.848;8.924;2024-03-25T04:47:06;96588.06;;;16.75;100.00
8697;BME280;4385;48.848;8.924;2024-03-25T04:49:31;96588.06;;;16.75;100.00
8697;BME280;4385;48.848;8.924;2024-03-25T04:51:56;96588.06;;;16.75;100.00
8697;BME280;4385;48.848;8.924;2024-03-25T04:54:22;96584.72;;;16.73;100.00
8697;BME280;4385;48.848;8.924;2024-03-25T04:56:47;96588.94;;;16.74;100.00
8697;BME280;4385;48.848;8.924;2024-03-25T04:59:12;96585.63;;;16.72;100.00
8697;BME280;4385;48.848;8.924;2024-03-25T05:01:38;96581.38;;;16.71;100.00
8697;BME280;4385;48.848;8.924;2024-03-25T05:04:03;96585.66;;;16.70;100.00
8697;BME280;4385;48.848;8.924;2024-03-25T05:06:28;96590.78;;;16.69;100.00
8697;BME280;4385;48.848;8.924;2024-03-25T05:08:54;96587.41;;;16.68;100.00
8697;BME280;4385;48.848;8.924;2024-03-25T05:11:19;96591.66;;;16.68;100.00
8697;BME280;4385;48.848;8.924;2024-03-25T05:13:44;96590.00;;;16.67;100.00
8697;BME280;4385;48.848;8.924;2024-03-25T05:16:10;96604.41;;;16.66;100.00
8697;BME280;4385;48.848;8.924;2024-03-25T05:18:36;96595.19;;;16.64;100.00
8697;BME280;4385;48.848;8.924;2024-03-25T05:21:01;96603.59;;;16.66;100.00
8697;BME280;4385;48.848;8.924;2024-03-25T05:23:26;96605.34;;;16.64;100.00
8697;BME280;4385;48.848;8.924;2024-03-25T05:25:52;96604.50;;;16.63;100.00
8697;BME280;4385;48.848;8.924;2024-03-25T05:28:17;96605.34;;;16.64;100.00
8697;BME280;4385;48.848;8.924;2024-03-25T05:30:42;96604.47;;;16.65;100.00
8697;BME280;4385;48.848;8.924;2024-03-25T05:33:07;96603.53;;;16.69;100.00
8697;BME280;4385;48.848;8.924;2024-03-25T05:35:33;96610.16;;;16.73;100.00
8697;BME280;4385;48.848;8.924;2024-03-25T05:38:02;96609.25;;;16.76;100.00
8697;BME280;4385;48.848;8.924;2024-03-25T05:40:28;96614.16;;;16.82;100.00
8697;BME280;4385;48.848;8.924;2024-03-25T05:42:54;96614.09;;;16.83;100.00
8697;BME280;4385;48.848;8.924;2024-03-25T05:45:19;96618.25;;;16.88;100.00
8697;BME280;4385;48.848;8.924;2024-03-25T05:47:44;96624.91;;;16.92;100.00
8697;BME280;4385;48.848;8.924;2024-03-25T05:50:10;96625.75;;;16.92;100.00
8697;BME280;4385;48.848;8.924;2024-03-25T05:52:35;96620.59;;;16.94;100.00
8697;BME280;4385;48.848;8.924;2024-03-25T05:55:01;96614.63;;;16.95;100.00
8697;BME280;4385;48.848;8.924;2024-03-25T05:57:26;96618.06;;;16.94;100.00
8697;BME280;4385;48.848;8.924;2024-03-25T05:59:51;96617.13;;;16.97;100.00
8697;BME280;4385;48.848;8.924;2024-03-25T06:02:17;96614.53;;;16.98;100.00
8697;BME280;4385;48.848;8.924;2024-03-25T06:04:42;96619.56;;;17.00;100.00
8697;BME280;4385;48.848;8.924;2024-03-25T06:07:07;96628.06;;;17.00;100.00
8697;BME280;4385;48.848;8.924;2024-03-25T06:09:33;96622.06;;;17.01;100.00
8697;BME280;4385;48.848;8.924;2024-03-25T06:11:58;96621.19;;;17.02;100.00
8697;BME280;4385;48.848;8.924;2024-03-25T06:14:24;96614.34;;;17.04;100.00
8697;BME280;4385;48.848;8.924;2024-03-25T06:16:49;96616.00;;;17.05;100.00
8697;BME280;4385;48.848;8.924;2024-03-25T06:19:14;96605.81;;;17.05;100.00
8697;BME280;4385;48.848;8.924;2024-03-25T06:21:39;96604.97;;;17.06;100.00
8697;BME280;4385;48.848;8.924;2024-03-25T06:24:05;96613.41;;;17.08;100.00
8697;BME280;4385;48.848;8.924;2024-03-25T06:26:31;96613.41;;;17.08;100.00
8697;BME280;4385;48.848;8.924;2024-03-25T06:28:56;96613.41;;;17.08;100.00
8697;BME280;4385;48.848;8.924;2024-03-25T06:31:21;96615.94;;;17.08;100.00
8697;BME280;4385;48.848;8.924;2024-03-25T06:34:05;96620.22;;;17.08;100.00
8697;BME280;4385;48.848;8.924;2024-03-25T06:36:39;96620.22;;;17.06;100.00
8697;BME280;4385;48.848;8.924;2024-03-25T06:39:04;96625.31;;;17.06;100.00
8697;BME280;4385;48.848;8.924;2024-03-25T06:41:30;96627.88;;;17.06;100.00
8697;BME280;4385;48.848;8.924;2024-03-25T06:43:55;96629.56;;;17.07;100.00
8697;BME280;4385;48.848;8.924;2024-03-25T06:46:20;96629.56;;;17.07;100.00
8697;BME280;4385;48.848;8.924;2024-03-25T06:48:46;96635.50;;;17.08;100.00
8697;BME280;4385;48.848;8.924;2024-03-25T06:51:12;96637.19;;;17.07;100.00
8697;BME280;4385;48.848;8.924;2024-03-25T06:53:37;96636.31;;;17.08;100.00
8697;BME280;4385;48.848;8.924;2024-03-25T06:56:03;96638.00;;;17.10;100.00
8697;BME280;4385;48.848;8.924;2024-03-25T06:58:28;96638.00;;;17.10;100.00
8697;BME280;4385;48.848;8.924;2024-03-25T07:00:55;96641.31;;;17.12;100.00
8697;BME280;4385;48.848;8.924;2024-03-25T07:03:21;96645.56;;;17.11;100.00
8697;BME280;4385;48.848;8.924;2024-03-25T07:05:48;96648.06;;;17.13;100.00
8697;BME280;4385;48.848;8.924;2024-03-25T07:08:14;96644.69;;;17.12;100.00
8697;BME280;4385;48.848;8.924;2024-03-25T07:10:41;96638.75;;;17.12;100.00
8697;BME280;4385;48.848;8.924;2024-03-25T07:13:07;96635.44;;;17.10;100.00
8697;BME280;4385;48.848;8.924;2024-03-25T07:15:32;96643.84;;;17.12;100.00
8697;BME280;4385;48.848;8.924;2024-03-25T07:17:58;96629.47;;;17.11;100.00
8697;BME280;4385;48.848;8.924;2024-03-25T07:20:23;96631.13;;;17.12;100.00
8697;BME280;4385;48.848;8.924;2024-03-25T07:22:49;96620.13;;;17.11;100.00
8697;BME280;4385;48.848;8.924;2024-03-25T07:25:14;96622.63;;;17.13;100.00
8697;BME280;4385;48.848;8.924;2024-03-25T07:27:40;96623.44;;;17.13;100.00
8697;BME280;4385;48.848;8.924;2024-03-25T07:30:06;96621.78;;;17.12;100.00
8697;BME280;4385;48.848;8.924;2024-03-25T07:32:32;96622.63;;;17.13;100.00
8697;BME280;4385;48.848;8.924;2024-03-25T07:34:58;96622.72;;;17.10;100.00
8697;BME280;4385;48.848;8.924;2024-03-25T07:37:23;96619.25;;;17.12;100.00
8697;BME280;4385;48.848;8.924;2024-03-25T07:39:48;96615.84;;;17.12;100.00
8697;BME280;4385;48.848;8.924;2024-03-25T07:42:13;96615.84;;;17.12;100.00
8697;BME280;4385;48.848;8.924;2024-03-25T07:44:39;96615.03;;;17.11;100.00
8697;BME280;4385;48.848;8.924;2024-03-25T07:47:04;96609.00;;;17.14;100.00
8697;BME280;4385;48.848;8.924;2024-03-25T07:49:31;96609.00;;;17.14;100.00
8697;BME280;4385;48.848;8.924;2024-03-25T07:51:56;96607.34;;;17.13;100.00
8697;BME280;4385;48.848;8.924;2024-03-25T07:54:22;96612.34;;;17.16;100.00
8697;BME280;4385;48.848;8.924;2024-03-25T07:56:47;96612.34;;;17.16;100.00
8697;BME280;4385;48.848;8.924;2024-03-25T07:59:12;96617.34;;;17.19;100.00
8697;BME280;4385;48.848;8.924;2024-03-25T08:01:38;96617.34;;;17.19;100.00
8697;BME280;4385;48.848;8.924;2024-03-25T08:04:03;96618.16;;;17.19;100.00
8697;BME280;4385;48.848;8.924;2024-03-25T08:06:28;96628.28;;;17.21;100.00
8697;BME280;4385;48.848;8.924;2024-03-25T08:08:54;96621.50;;;17.22;100.00
8697;BME280;4385;48.848;8.924;2024-03-25T08:11:19;96628.16;;;17.26;100.00
8697;BME280;4385;48.848;8.924;2024-03-25T08:13:44;96623.94;;;17.25;100.00
8697;BME280;4385;48.848;8.924;2024-03-25T08:16:09;96617.09;;;17.27;100.00
8697;BME280;4385;48.848;8.924;2024-03-25T08:18:35;96608.63;;;17.26;100.00
8697;BME280;4385;48.848;8.924;2024-03-25T08:21:00;96606.81;;;17.30;100.00
8697;BME280;4385;48.848;8.924;2024-03-25T08:23:25;96606.06;;;17.26;100.00
8697;BME280;4385;48.848;8.924;2024-03-25T08:25:50;96601.00;;;17.26;100.00
8697;BME280;4385;48.848;8.924;2024-03-25T08:28:16;96599.28;;;17.27;100.00
8697;BME280;4385;48.848;8.924;2024-03-25T08:30:41;96596.78;;;17.25;100.00
8697;BME280;4385;48.848;8.924;2024-03-25T08:33:06;96591.69;;;17.25;100.00
8697;BME280;4385;48.848;8.924;2024-03-25T08:35:31;96593.34;;;17.26;100.00
8697;BME280;4385;48.848;8.924;2024-03-25T08:37:57;96594.19;;;17.27;100.00
8697;BME280;4385;48.848;8.924;2024-03-25T08:40:22;96595.84;;;17.28;100.00
8697;BME280;4385;48.848;8.924;2024-03-25T08:42:47;96596.69;;;17.28;100.00
8697;BME280;4385;48.848;8.924;2024-03-25T08:45:12;96600.88;;;17.29;100.00
8697;BME280;4385;48.848;8.924;2024-03-25T08:47:38;96595.78;;;17.29;100.00
8697;BME280;4385;48.848;8.924;2024-03-25T08:50:05;96595.69;;;17.32;100.00
8697;BME280;4385;48.848;8.924;2024-03-25T08:52:31;96584.63;;;17.33;100.00
8697;BME280;4385;48.848;8.924;2024-03-25T08:54:56;96583.81;;;17.33;100.00
8697;BME280;4385;48.848;8.924;2024-03-25T08:57:21;96587.16;;;17.33;100.00
8697;BME280;4385;48.848;8.924;2024-03-25T08:59:47;96577.78;;;17.36;100.00
8697;BME280;4385;48.848;8.924;2024-03-25T09:02:12;96577.72;;;17.37;100.00
8697;BME280;4385;48.848;8.924;2024-03-25T09:04:37;96584.47;;;17.38;100.00
8697;BME280;4385;48.848;8.924;2024-03-25T09:07:03;96565.88;;;17.36;100.00
8697;BME280;4385;48.848;8.924;2024-03-25T09:09:28;96567.59;;;17.36;100.00
8697;BME280;4385;48.848;8.924;2024-03-25T09:12:12;96574.44;;;17.33;100.00
8697;BME280;4385;48.848;8.924;2024-03-25T09:14:37;96572.59;;;17.39;100.00
8697;BME280;4385;48.848;8.924;2024-03-25T09:17:03;96574.25;;;17.40;100.00
8697;BME280;4385;48.848;8.924;2024-03-25T09:19:29;96573.44;;;17.39;100.00
8697;BME280;4385;48.848;8.924;2024-03-25T09:21:54;96570.03;;;17.39;100.00
8697;BME280;4385;48.848;8.924;2024-03-25T09:24:19;96565.84;;;17.38;100.00
8697;BME280;4385;48.848;8.924;2024-03-25T09:26:44;96565.84;;;17.38;100.00
8697;BME280;4385;48.848;8.924;2024-03-25T09:29:11;96564.06;;;17.40;100.00
8697;BME280;4385;48.848;8.924;2024-03-25T09:31:37;96557.25;;;17.40;100.00
8697;BME280;4385;48.848;8.924;2024-03-25T09:34:02;96549.63;;;17.40;100.00
8697;BME280;4385;48.848;8.924;2024-03-25T09:36:27;96547.03;;;17.42;100.00
8697;BME280;4385;48.848;8.924;2024-03-25T09:38:52;96547.03;;;17.42;100.00
8697;BME280;4385;48.848;8.924;2024-03-25T09:41:18;96538.50;;;17.43;100.00
8697;BME280;4385;48.848;8.924;2024-03-25T09:43:52;96540.16;;;17.44;100.00
8697;BME280;4385;48.848;8.924;2024-03-25T09:46:19;96540.16;;;17.44;100.00
8697;BME280;4385;48.848;8.924;2024-03-25T09:48:44;96535.06;;;17.44;100.00
8697;BME280;4385;48.848;8.924;2024-03-25T09:51:10;96528.31;;;17.43;100.00
8697;BME280;4385;48.848;8.924;2024-03-25T09:53:35;96533.34;;;17.44;100.00
8697;BME280;4385;48.848;8.924;2024-03-25T09:56:01;96531.63;;;17.45;100.00
8697;BME280;4385;48.848;8.924;2024-03-25T09:58:27;96530.69;;;17.48;100.00
8697;BME280;4385;48.848;8.924;2024-03-25T10:00:53;96526.44;;;17.48;100.00
8697;BME280;4385;48.848;8.924;2024-03-25T10:03:20;96514.59;;;17.47;100.00
8697;BME280;4385;48.848;8.924;2024-03-25T10:05:45;96513.72;;;17.48;100.00
8697;BME280;4385;48.848;8.924;2024-03-25T10:08:10;96508.63;;;17.48;100.00
8697;BME280;4385;48.848;8.924;2024-03-25T10:10:36;96498.38;;;17.50;100.00
8697;BME280;4385;48.848;8.924;2024-03-25T10:13:05;96494.19;;;17.49;100.00
8697;BME280;4385;48.848;8.924;2024-03-25T10:15:31;96499.28;;;17.49;100.00
8697;BME280;4385;48.848;8.924;2024-03-25T10:17:57;96492.44;;;17.49;100.00
8697;BME280;4385;48.848;8.924;2024-03-25T10:20:22;96489.03;;;17.50;100.00
8697;BME280;4385;48.848;8.924;2024-03-25T10:22:47;96481.38;;;17.50;100.00
8697;BME280;4385;48.848;8.924;2024-03-25T10:25:23;96477.06;;;17.52;100.00
8697;BME280;4385;48.848;8.924;2024-03-25T10:27:57;96479.53;;;17.54;100.00
8697;BME280;4385;48.848;8.924;2024-03-25T10:30:23;96479.53;;;17.54;100.00
8697;BME280;4385;48.848;8.924;2024-03-25T10:35:26;96468.44;;;17.56;100.00
8697;BME280;4385;48.848;8.924;2024-03-25T10:37:54;96467.53;;;17.57;100.00
8697;BME280;4385;48.848;8.924;2024-03-25T10:40:22;96462.44;;;17.57;100.00
8697;BME280;4385;48.848;8.924;2024-03-25T10:42:47;96461.56;;;17.58;100.00
8697;BME280;4385;48.848;8.924;2024-03-25T10:45:13;96454.81;;;17.57;100.00
8697;BME280;4385;48.848;8.924;2024-03-25T10:47:38;96456.47;;;17.58;100.00
8697;BME280;4385;48.848;8.924;2024-03-25T10:50:09;96451.41;;;17.57;100.00
8697;BME280;4385;48.848;8.924;2024-03-25T10:52:39;96457.34;;;17.57;100.00
8697;BME280;4385;48.848;8.924;2024-03-25T10:55:06;96446.38;;;17.55;100.00
8697;BME280;4385;48.848;8.924;2024-03-25T10:57:32;96442.97;;;17.56;100.00
8697;BME280;4385;48.848;8.924;2024-03-25T11:00:00;96439.53;;;17.57;100.00
8697;BME280;4385;48.848;8.924;2024-03-25T11:02:26;96436.09;;;17.58;100.00
8697;BME280;4385;48.848;8.924;2024-03-25T11:04:53;96433.47;;;17.60;100.00
8697;BME280;4385;48.848;8.924;2024-03-25T11:07:30;96429.22;;;17.61;100.00
8697;BME280;4385;48.848;8.924;2024-03-25T11:10:05;96422.38;;;17.63;100.00
8697;BME280;4385;48.848;8.924;2024-03-25T11:12:32;96419.78;;;17.64;100.00
8697;BME280;4385;48.848;8.924;2024-03-25T11:15:01;96415.47;;;17.65;100.00
8697;BME280;4385;48.848;8.924;2024-03-25T11:17:26;96411.22;;;17.65;100.00
8697;BME280;4385;48.848;8.924;2024-03-25T11:19:51;96405.19;;;17.68;100.00
8697;BME280;4385;48.848;8.924;2024-03-25T11:22:24;96395.78;;;17.70;100.00
8697;BME280;4385;48.848;8.924;2024-03-25T11:24:50;96399.97;;;17.71;100.00
8697;BME280;4385;48.848;8.924;2024-03-25T11:27:21;96394.00;;;17.72;100.00
8697;BME280;4385;48.848;8.924;2024-03-25T11:29:47;96386.38;;;17.72;100.00
8697;BME280;4385;48.848;8.924;2024-03-25T11:32:14;96393.13;;;17.73;100.00
8697;BME280;4385;48.848;8.924;2024-03-25T11:34:49;96387.19;;;17.73;100.00
8697;BME280;4385;48.848;8.924;2024-03-25T11:37:15;96376.19;;;17.72;100.00
8697;BME280;4385;48.848;8.924;2024-03-25T11:39:40;96371.09;;;17.72;100.00
8697;BME280;4385;48.848;8.924;2024-03-25T11:42:08;96369.34;;;17.73;100.00
8697;BME280;4385;48.848;8.924;2024-03-25T11:44:36;96364.19;;;17.74;100.00
8697;BME280;4385;48.848;8.924;2024-03-25T11:47:02;96364.19;;;17.74;100.00
8697;BME280;4385;48.848;8.924;2024-03-25T11:49:28;96359.09;;;17.74;100.00
8697;BME280;4385;48.848;8.924;2024-03-25T11:51:53;96348.91;;;17.74;100.00
8697;BME280;4385;48.848;8.924;2024-03-25T11:54:18;96349.75;;;17.75;100.00
8697;BME280;4385;48.848;8.924;2024-03-25T11:56:44;96343.81;;;17.74;100.00
8697;BME280;4385;48.848;8.924;2024-03-25T11:59:10;96343.00;;;17.74;100.00
8697;BME280;4385;48.848;8.924;2024-03-25T12:01:37;96343.81;;;17.74;100.00
8697;BME280;4385;48.848;8.924;2024-03-25T12:04:16;96334.53;;;17.73;100.00
8697;BME280;4385;48.848;8.924;2024-03-25T12:06:42;96335.31;;;17.75;100.00
8697;BME280;4385;48.848;8.924;2024-03-25T12:09:07;96326.88;;;17.73;100.00
8697;BME280;4385;48.848;8.924;2024-03-25T12:11:51;96321.78;;;17.73;100.00
8697;BME280;4385;48.848;8.924;2024-03-25T12:14:16;96321.78;;;17.73;100.00
8697;BME280;4385;48.848;8.924;2024-03-25T12:16:42;96323.44;;;17.74;100.00
8697;BME280;4385;48.848;8.924;2024-03-25T12:19:08;96315.78;;;17.74;100.00
8697;BME280;4385;48.848;8.924;2024-03-25T12:21:33;96301.41;;;17.73;100.00
8697;BME280;4385;48.848;8.924;2024-03-25T12:23:59;96298.84;;;17.73;100.00
8697;BME280;4385;48.848;8.924;2024-03-25T12:26:24;96285.22;;;17.74;100.00
8697;BME280;4385;48.848;8.924;2024-03-25T12:28:50;96286.00;;;17.76;100.00
8697;BME280;4385;48.848;8.924;2024-03-25T12:31:15;96283.38;;;17.78;100.00
8697;BME280;4385;48.848;8.924;2024-03-25T12:33:42;96279.88;;;17.80;100.00
8697;BME280;4385;48.848;8.924;2024-03-25T12:36:07;96281.56;;;17.81;100.00
8697;BME280;4385;48.848;8.924;2024-03-25T12:38:33;96267.03;;;17.83;100.00
8697;BME280;4385;48.848;8.924;2024-03-25T12:41:09;96255.06;;;17.86;100.00
8697;BME280;4385;48.848;8.924;2024-03-25T12:43:36;96250.81;;;17.86;100.00
8697;BME280;4385;48.848;8.924;2024-03-25T12:46:06;96247.34;;;17.87;100.00
8697;BME280;4385;48.848;8.924;2024-03-25T12:48:31;96248.19;;;17.88;100.00
8697;BME280;4385;48.848;8.924;2024-03-25T12:50:57;96243.09;;;17.88;100.00
8697;BME280;4385;48.848;8.924;2024-03-25T12:53:22;96242.19;;;17.89;100.00
8697;BME280;4385;48.848;8.924;2024-03-25T12:55:48;96239.59;;;17.90;100.00
8697;BME280;4385;48.848;8.924;2024-03-25T12:58:13;96234.44;;;17.92;100.00
8697;BME280;4385;48.848;8.924;2024-03-25T13:00:39;96234.44;;;17.92;100.00
8697;BME280;4385;48.848;8.924;2024-03-25T13:03:06;96227.69;;;17.91;100.00
8697;BME280;4385;48.848;8.924;2024-03-25T13:05:33;96225.13;;;17.91;100.00